Time;durP1;ratioP1;P1;durP2;ratioP2;P2;SDS_P1;SDS_P2;PMS_P1;PMS_P2;Temp;Humidity;BMP_temperature;BMP_pressure;BME280_temperature;BME280_humidity;BME280_pressure;Samples;Min_cycle;Max_cycle;Signal;HPM_P1;HPM_P2
2022/07/25 00:02:30;;;;;;;1.77;1.50;;;;;;;24.30;46.84;100410.92;2460265;80;26255;-79
2022/07/25 00:05:57;;;;;;;3.60;1.35;;;;;;;24.27;46.89;100407.92;2464082;79;25613;-75
2022/07/25 00:09:20;;;;;;;2.52;1.82;;;;;;;24.25;46.91;100404.42;2439369;80;25659;-80
2022/07/25 00:12:51;;;;;;;2.02;1.45;;;;;;;24.22;46.95;100404.52;2466916;80;25657;-79
2022/07/25 00:16:14;;;;;;;1.42;1.32;;;;;;;24.19;47.06;100402.82;2468830;79;25672;-76
2022/07/25 00:19:47;;;;;;;2.05;1.72;;;;;;;24.18;47.11;100402.42;2468765;80;25607;-79
2022/07/25 00:23:22;;;;;;;3.45;1.55;;;;;;;24.16;47.17;100398.92;2468318;79;25578;-79
2022/07/25 00:26:44;;;;;;;2.15;1.72;;;;;;;24.14;47.22;100397.25;2469012;80;25650;-79
2022/07/25 00:30:07;;;;;;;2.47;1.60;;;;;;;24.12;47.30;100392.42;2469377;80;25578;-77
2022/07/25 00:33:27;;;;;;;3.05;1.30;;;;;;;24.09;47.36;100383.19;2469282;80;25582;-79
2022/07/25 00:36:50;;;;;;;1.52;1.40;;;;;;;24.07;47.41;100378.39;2469452;80;25593;-79
2022/07/25 00:40:12;;;;;;;2.08;1.50;;;;;;;24.04;47.44;100368.70;2469462;80;25646;-76
2022/07/25 00:43:32;;;;;;;1.30;1.15;;;;;;;24.00;47.49;100354.62;2469438;80;25667;-78
2022/07/25 00:46:54;;;;;;;1.62;1.30;;;;;;;24.00;47.56;100364.41;2469340;80;25656;-75
2022/07/25 00:50:19;;;;;;;1.57;1.45;;;;;;;23.99;47.62;100361.31;2468815;80;25640;-79
2022/07/25 00:53:51;;;;;;;3.22;1.45;;;;;;;23.97;47.66;100365.36;2468630;80;25605;-77
2022/07/25 00:57:30;;;;;;;2.83;1.52;;;;;;;23.95;47.74;100369.86;2468755;80;25136;-76
2022/07/25 01:00:47;;;;;;;3.35;1.35;;;;;;;23.94;47.76;100375.25;2466878;80;25602;-76
2022/07/25 01:04:18;;;;;;;1.32;1.20;;;;;;;23.91;47.79;100380.20;2415086;80;25709;-79
2022/07/25 01:08:14;;;;;;;2.50;1.57;;;;;;;23.90;47.84;100370.94;2468541;80;25646;-75
2022/07/25 01:11:53;;;;;;;3.08;1.70;;;;;;;23.89;47.88;100376.70;2383931;81;25760;-78
2022/07/25 01:15:18;;;;;;;2.00;1.43;;;;;;;23.88;47.89;100376.77;2343327;83;25653;-78
2022/07/25 01:18:49;;;;;;;2.17;1.82;;;;;;;23.87;47.95;100375.03;2346379;83;25655;-79
2022/07/25 01:22:17;;;;;;;1.95;1.75;;;;;;;23.83;48.00;100369.36;2341176;82;25855;-79
2022/07/25 01:25:38;;;;;;;1.67;1.50;;;;;;;23.79;48.07;100365.92;2336892;83;25688;-76
2022/07/25 01:29:14;;;;;;;2.35;1.70;;;;;;;23.77;48.17;100366.45;2337067;84;25560;-75
2022/07/25 01:32:44;;;;;;;3.22;2.08;;;;;;;23.74;48.21;100362.09;2336002;83;25741;-79
2022/07/25 01:36:10;;;;;;;1.77;1.65;;;;;;;23.71;48.29;100357.32;2336986;84;25690;-78
2022/07/25 01:39:38;;;;;;;1.95;1.70;;;;;;;23.69;48.33;100356.05;2336197;84;25910;-76
2022/07/25 01:43:09;;;;;;;1.80;1.65;;;;;;;23.68;48.41;100358.74;2313040;84;25724;-75
2022/07/25 01:50:29;;;;;;;1.95;1.75;;;;;;;23.63;48.53;100351.34;2343366;83;25719;-76
2022/07/25 01:54:07;;;;;;;2.25;1.50;;;;;;;23.60;48.58;100354.96;2340417;84;25891;-80
2022/07/25 01:57:41;;;;;;;3.00;1.72;;;;;;;23.57;48.65;100357.25;2338093;84;25828;-75
2022/07/25 02:01:02;;;;;;;2.67;1.82;;;;;;;23.55;48.68;100360.87;2340547;84;25769;-79
2022/07/25 02:04:25;;;;;;;3.12;1.72;;;;;;;23.52;48.78;100355.20;2343398;84;25722;-76
2022/07/25 02:07:46;;;;;;;1.95;1.85;;;;;;;23.50;48.85;100358.36;2320530;84;25703;-79
2022/07/25 02:11:06;;;;;;;2.45;1.65;;;;;;;23.49;48.91;100362.37;2347222;84;25776;-80
2022/07/25 02:14:27;;;;;;;3.50;1.60;;;;;;;23.48;48.94;100361.97;2350150;84;25621;-77
2022/07/25 02:17:50;;;;;;;1.98;1.62;;;;;;;23.45;49.01;100355.41;2350069;84;25740;-79
2022/07/25 02:21:29;;;;;;;;;;;;;;;;;;;;;
2022/07/25 02:24:55;;;;;;;2.20;2.00;;;;;;;23.42;49.07;100358.16;2430705;80;25689;-80
2022/07/25 02:28:34;;;;;;;1.98;1.77;;;;;;;23.39;49.09;100354.26;2430794;81;25704;-80
2022/07/25 02:32:08;;;;;;;3.90;1.92;;;;;;;23.37;49.15;100358.77;2431202;80;25544;-79
2022/07/25 02:35:28;;;;;;;2.60;1.82;;;;;;;23.30;49.21;100354.09;2431640;81;25690;-76
2022/07/25 02:38:50;;;;;;;2.77;1.80;;;;;;;23.26;49.33;100350.64;2431857;81;25585;-79
2022/07/25 02:42:11;;;;;;;2.05;1.92;;;;;;;23.25;49.41;100354.66;2431581;81;25499;-80
2022/07/25 02:45:35;;;;;;;3.15;1.37;;;;;;;23.21;49.45;100360.53;2431364;80;25205;-79
2022/07/25 02:48:54;;;;;;;1.47;1.37;;;;;;;23.19;49.53;100361.52;2431537;80;26132;-79
2022/07/25 02:52:23;;;;;;;1.80;1.70;;;;;;;23.19;49.56;100359.72;2431643;80;25642;-78
2022/07/25 02:55:45;;;;;;;2.25;1.60;;;;;;;23.17;49.62;100364.20;2428064;81;25670;-76
2022/07/25 02:59:05;;;;;;;4.28;2.83;;;;;;;23.15;49.69;100362.03;2432002;81;25547;-79
2022/07/25 03:02:26;;;;;;;3.17;1.65;;;;;;;23.15;49.69;100363.36;2431672;80;25595;-79
2022/07/25 03:05:50;;;;;;;1.92;1.40;;;;;;;23.14;49.73;100366.08;2431816;80;25642;-80
2022/07/25 03:09:16;;;;;;;4.28;1.70;;;;;;;23.12;49.79;100373.21;2431824;80;25579;-80
2022/07/25 03:12:42;;;;;;;1.75;1.65;;;;;;;23.08;49.86;100365.36;2431646;80;25658;-80
2022/07/25 03:16:03;;;;;;;1.92;1.82;;;;;;;23.10;49.95;100370.61;2431842;80;25677;-79
2022/07/25 03:19:23;;;;;;;2.83;1.65;;;;;;;23.08;49.98;100365.78;2431996;81;25642;-80
2022/07/25 03:22:44;;;;;;;2.40;2.20;;;;;;;23.07;50.06;100363.59;2440164;80;25618;-80
2022/07/25 03:26:05;;;;;;;2.10;1.90;;;;;;;;;;2450543;79;30796;-78
2022/07/25 03:29:28;;;;;;;2.85;1.72;;;;;;;;;;2449772;80;25642;-78
2022/07/25 03:32:49;;;;;;;3.20;1.40;;;;;;;;;;2450198;80;25641;-80
2022/07/25 03:36:10;;;;;;;1.60;1.42;;;;;;;23.07;50.26;100359.59;2450214;80;25641;-79
2022/07/25 03:39:35;;;;;;;1.70;1.60;;;;;;;23.09;50.23;100354.25;2450340;80;25562;-80
2022/07/25 03:43:05;;;;;;;1.80;1.70;;;;;;;23.07;50.27;100363.59;2449391;80;25603;-78
2022/07/25 03:46:26;;;;;;;2.30;2.00;;;;;;;23.08;50.34;100357.80;2421773;79;25555;-79
2022/07/25 03:49:47;;;;;;;2.10;1.90;;;;;;;23.10;50.38;100355.53;2450381;80;25683;-79
2022/07/25 03:53:07;;;;;;;2.10;1.62;;;;;;;23.14;50.38;100364.28;2449958;80;25682;-80
2022/07/25 03:56:40;;;;;;;2.65;1.77;;;;;;;23.17;50.40;100363.34;2450562;80;25797;-80
2022/07/25 04:00:02;;;;;;;2.55;2.10;;;;;;;23.20;50.39;100364.58;2450447;80;25713;-79
2022/07/25 04:03:24;;;;;;;2.22;1.82;;;;;;;23.23;50.39;100362.70;2449499;79;25728;-76
2022/07/25 04:06:46;;;;;;;1.98;1.65;;;;;;;23.27;50.47;100352.84;2450242;80;25562;-80
2022/07/25 04:10:28;;;;;;;2.33;2.12;;;;;;;23.27;50.47;100352.84;2450343;80;25779;-76
2022/07/25 04:13:54;;;;;;;5.60;1.77;;;;;;;23.27;50.38;100353.70;2450245;80;25551;-75
2022/07/25 04:17:15;;;;;;;2.27;1.80;;;;;;;23.28;50.43;100346.59;2421600;79;25535;-78
2022/07/25 04:20:36;;;;;;;3.08;1.98;;;;;;;23.32;50.46;100353.13;2449994;80;25592;-76
2022/07/25 04:23:57;;;;;;;2.70;2.15;;;;;;;23.34;50.43;100358.39;2431976;80;25653;-79
2022/07/25 04:27:24;;;;;;;2.80;1.75;;;;;;;23.36;50.41;100357.91;2425084;81;25547;-77
2022/07/25 04:30:44;;;;;;;3.40;1.90;;;;;;;23.36;50.43;100359.23;2403256;81;25584;-78
2022/07/25 04:34:21;;;;;;;2.83;1.62;;;;;;;23.42;50.43;100363.05;2428455;81;31354;-77
2022/07/25 04:37:49;;;;;;;3.83;1.60;;;;;;;23.44;50.34;100359.00;2425410;81;25661;-79
2022/07/25 04:41:32;;;;;;;2.98;1.90;;;;;;;23.45;50.28;100358.94;2425128;81;25653;-78
2022/07/25 04:45:03;;;;;;;2.02;1.82;;;;;;;23.50;50.29;100357.03;2308521;84;25691;-79
2022/07/25 04:48:41;;;;;;;2.27;1.65;;;;;;;23.50;50.15;100359.69;2303148;85;25703;-77
2022/07/25 04:52:13;;;;;;;1.87;1.60;;;;;;;23.52;50.21;100356.53;2309469;84;25694;-79
2022/07/25 04:55:45;;;;;;;3.87;2.05;;;;;;;23.52;50.21;100356.53;2308648;85;25779;-79
2022/07/25 04:59:24;;;;;;;3.45;2.05;;;;;;;23.54;50.03;100360.00;2271205;86;25774;-79
2022/07/25 05:06:31;;;;;;;2.77;1.90;;;;;;;23.54;49.83;100353.34;2246952;85;25747;-79
2022/07/25 05:10:04;;;;;;;2.10;1.85;;;;;;;23.56;49.82;100350.19;2269083;86;25773;-75
2022/07/25 05:13:33;;;;;;;4.10;1.47;;;;;;;23.58;49.77;100351.00;2270319;86;26447;-79
2022/07/25 05:16:58;;;;;;;1.52;1.42;;;;;;;23.64;49.73;100350.41;2271559;86;25725;-75
2022/07/25 05:20:30;;;;;;;2.62;1.30;;;;;;;23.70;49.61;100348.47;2271199;86;25722;-76
2022/07/25 05:23:57;;;;;;;1.85;1.55;;;;;;;23.77;49.50;100347.82;2252193;84;25685;-77
2022/07/25 05:27:23;;;;;;;4.35;1.85;;;;;;;23.84;49.48;100352.03;2185366;89;25704;-81
2022/07/25 05:30:54;;;;;;;2.22;1.60;;;;;;;23.88;49.43;100339.02;2180701;89;25820;-77
2022/07/25 05:34:33;;;;;;;2.77;1.32;;;;;;;23.95;49.38;100332.58;2184800;89;26583;-78
2022/07/25 05:41:46;;;;;;;6.65;1.50;;;;;;;24.11;49.21;100332.09;2024131;95;25763;-81
2022/07/25 05:45:37;;;;;;;;;;;;;;;;;;;;;
2022/07/25 05:48:46;;;;;;;3.00;1.47;;;;;;;24.29;49.02;100326.13;2039781;95;26471;-77
2022/07/25 05:52:38;;;;;;;1.20;1.10;;;;;;;24.32;48.93;100327.83;2039911;95;25730;-79
2022/07/25 05:59:58;;;;;;;4.10;1.22;;;;;;;24.44;48.74;100329.66;2062634;95;26531;-76
2022/07/25 06:03:39;;;;;;;7.10;1.42;;;;;;;24.53;48.67;100321.78;2063175;95;25867;-79
2022/07/25 06:07:14;;;;;;;4.30;1.40;;;;;;;24.63;48.33;100331.66;1946589;99;25791;-79
2022/07/25 06:10:38;;;;;;;2.00;1.32;;;;;;;24.71;48.06;100324.28;1946765;100;25913;-80
2022/07/25 06:14:44;;;;;;;2.20;1.37;;;;;;;24.82;47.85;100326.09;1947699;100;25844;-79
2022/07/25 06:18:00;;;;;;;4.35;1.65;;;;;;;24.95;47.57;100326.52;1950392;99;25853;-75
2022/07/25 06:21:25;;;;;;;2.22;1.30;;;;;;;25.02;47.54;100323.17;1948919;100;25721;-79
2022/07/25 06:28:37;;;;;;;1.98;1.17;;;;;;;25.24;47.60;100317.45;1931223;101;25845;-76
2022/07/25 06:32:02;;;;;;;1.92;1.52;;;;;;;25.45;47.70;100319.78;1883275;101;25936;-75
2022/07/25 06:35:34;;;;;;;4.00;1.30;;;;;;;25.74;47.63;100311.94;1884851;103;26105;-79
2022/07/25 06:39:15;;;;;;;3.47;1.30;;;;;;;26.05;47.37;100305.37;1923785;101;25798;-76
2022/07/25 06:42:48;;;;;;;1.95;1.32;;;;;;;26.41;47.16;100300.28;1929353;101;26045;-75
2022/07/25 06:46:23;;;;;;;1.52;1.17;;;;;;;26.80;46.95;100302.18;1929813;101;25817;-75
2022/07/25 06:49:53;;;;;;;1.47;1.30;;;;;;;27.19;46.58;100296.83;1930206;101;25851;-79
2022/07/25 06:53:36;;;;;;;2.42;1.47;;;;;;;27.61;46.15;100304.22;1983697;97;25772;-78
2022/07/25 06:57:00;;;;;;;3.12;1.45;;;;;;;28.07;45.66;100293.48;1993705;97;25930;-78
2022/07/25 07:00:36;;;;;;;2.02;1.37;;;;;;;28.53;44.97;100291.17;1995336;97;25765;-76
2022/07/25 07:04:23;;;;;;;1.65;0.93;;;;;;;28.99;44.39;100296.78;2012570;97;25755;-79
2022/07/25 07:07:47;;;;;;;0.95;0.95;;;;;;;29.51;43.76;100299.77;2036115;97;26008;-79
2022/07/25 07:11:19;;;;;;;1.62;1.10;;;;;;;30.02;43.06;100301.78;2037243;96;25719;-80
2022/07/25 07:15:19;;;;;;;1.47;1.17;;;;;;;30.51;42.38;100288.11;2054841;94;25769;-79
2022/07/25 07:18:56;;;;;;;3.35;1.10;;;;;;;31.09;41.69;100297.16;2016897;95;25794;-81
2022/07/25 07:22:28;;;;;;;1.40;1.00;;;;;;;31.71;40.64;100306.58;2033508;95;25857;-79
2022/07/25 07:29:39;;;;;;;2.12;1.05;;;;;;;32.87;38.92;100296.49;1894442;102;25881;-76
2022/07/25 07:33:07;;;;;;;2.15;0.80;;;;;;;33.44;38.02;100303.71;1899582;104;25832;-80
2022/07/25 07:37:06;;;;;;;1.07;0.97;;;;;;;34.05;37.26;100293.32;1899095;104;25887;-79
2022/07/25 07:40:31;;;;;;;3.70;0.80;;;;;;;34.65;36.36;100290.05;1849751;105;25898;-76
2022/07/25 07:43:58;;;;;;;1.15;0.90;;;;;;;35.29;35.36;100298.98;1849673;102;25762;-79
2022/07/25 07:47:28;;;;;;;1.25;0.80;;;;;;;35.85;34.47;100301.61;1847281;105;25886;-79
2022/07/25 07:50:59;;;;;;;1.07;0.80;;;;;;;36.37;33.78;100296.34;1852374;105;25870;-79
2022/07/25 07:58:24;;;;;;;0.70;0.70;;;;;;;37.52;32.24;100296.62;1871040;104;26033;-76
2022/07/25 08:05:48;;;;;;;1.30;1.00;;;;;;;38.71;30.62;100297.36;1937828;99;25792;-79
2022/07/25 08:09:27;;;;;;;2.65;0.88;;;;;;;39.05;30.09;100296.84;1876534;104;25888;-77
2022/07/25 08:13:17;;;;;;;1.00;0.90;;;;;;;39.39;29.68;100287.63;1876842;101;26678;-78
2022/07/25 08:16:49;;;;;;;0.68;0.60;;;;;;;39.79;29.19;100292.67;1960306;98;25900;-77
2022/07/25 08:20:24;;;;;;;0.70;0.70;;;;;;;39.81;28.63;100285.20;1990330;98;25854;-79
2022/07/25 08:24:09;;;;;;;2.17;0.60;;;;;;;40.14;28.29;100289.61;2004678;94;25749;-79
2022/07/25 08:27:47;;;;;;;1.10;0.65;;;;;;;40.55;27.96;100277.66;2049579;95;26500;-79
2022/07/25 08:31:18;;;;;;;0.70;0.60;;;;;;;41.04;27.54;100284.81;2276181;83;25744;-79
2022/07/25 08:34:41;;;;;;;0.93;0.70;;;;;;;41.44;27.15;100286.03;2280618;85;25730;-79
2022/07/25 08:38:20;;;;;;;0.80;0.55;;;;;;;41.78;26.74;100287.30;2173203;90;25692;-80
2022/07/25 08:41:57;;;;;;;;;;;;;;;;;;;;;
2022/07/25 08:45:29;;;;;;;1.30;0.70;;;;;;;42.28;25.69;100278.67;2145611;89;25754;-80
2022/07/25 08:49:12;;;;;;;0.70;0.60;;;;;;;42.51;25.30;100282.41;2194666;89;26515;-79
2022/07/25 08:52:38;;;;;;;3.17;0.60;;;;;;;42.77;25.00;100274.00;2191459;88;25742;-78
2022/07/25 08:59:45;;;;;;;2.02;0.60;;;;;;;43.19;24.65;100274.20;2084008;93;25900;-80
2022/07/25 09:03:24;;;;;;;3.58;0.70;;;;;;;43.34;24.53;100268.30;2087438;93;25802;-78
2022/07/25 09:10:50;;;;;;;1.20;0.50;;;;;;;43.59;23.96;100267.66;2046057;95;25973;-79
2022/07/25 09:14:24;;;;;;;0.60;0.55;;;;;;;43.80;23.64;100268.89;2047614;92;25873;-81
2022/07/25 09:18:00;;;;;;;2.12;0.80;;;;;;;43.82;23.52;100265.45;2048239;95;25854;-80
2022/07/25 09:21:39;;;;;;;2.00;0.65;;;;;;;43.93;23.43;100262.83;2048037;95;25758;-80
2022/07/25 09:25:08;;;;;;;1.07;0.60;;;;;;;44.16;23.21;100257.31;2057704;94;25898;-79
2022/07/25 09:28:53;;;;;;;2.22;0.82;;;;;;;44.36;23.05;100254.40;2067842;94;25774;-81
2022/07/25 09:32:24;;;;;;;2.75;0.90;;;;;;;44.49;22.76;100251.86;2037416;96;25816;-81
2022/07/25 09:36:05;;;;;;;0.60;0.55;;;;;;;44.60;22.55;100248.31;2001868;97;26431;-77
2022/07/25 09:48:00;;;;;;;1.15;0.70;;;;;;;44.85;22.33;100246.14;1957040;100;26051;-80
2022/07/25 09:51:47;;;;;;;;;;;;;;;;;;;;;
2022/07/25 09:56:45;;;;;;;;;;;;;;;;;;;;;
2022/07/25 10:01:04;;;;;;;;;;;;;;;;;;;;;
2022/07/25 10:05:11;;;;;;;3.17;0.70;;;;;;;45.20;21.59;100234.91;1793136;108;25922;-81
2022/07/25 10:08:44;;;;;;;0.95;0.60;;;;;;;45.16;21.39;100228.94;1825439;104;25859;-80
2022/07/25 10:16:27;;;;;;;1.07;0.60;;;;;;;45.30;21.29;100224.44;1839710;105;25875;-82
2022/07/25 10:20:14;;;;;;;;;;;;;;;;;;;;;
2022/07/25 10:24:12;;;;;;;4.33;0.80;;;;;;;45.38;21.31;100225.68;1822236;107;25810;-79
2022/07/25 10:28:15;;;;;;;1.17;0.62;;;;;;;45.33;21.28;100219.05;1831837;106;25981;-81
2022/07/25 10:31:52;;;;;;;1.47;0.60;;;;;;;45.34;21.21;100213.89;1873369;102;25939;-78
2022/07/25 10:35:30;;;;;;;0.95;0.80;;;;;;;45.33;21.32;100201.16;1817328;107;26043;-81
2022/07/25 10:39:12;;;;;;;2.10;0.60;;;;;;;45.31;21.33;100202.73;1820674;107;25911;-79
2022/07/25 10:42:52;;;;;;;3.62;0.70;;;;;;;45.25;21.23;100186.99;1829436;108;25911;-77
2022/07/25 10:50:24;;;;;;;2.95;0.70;;;;;;;45.31;21.07;100190.88;1799689;108;25976;-81
2022/07/25 10:53:48;;;;;;;1.00;0.60;;;;;;;45.33;20.99;100181.88;1720812;110;25833;-81
2022/07/25 10:57:35;;;;;;;0.70;0.60;;;;;;;45.37;20.97;100175.81;1767453;109;25910;-77
2022/07/25 11:01:02;;;;;;;0.90;0.55;;;;;;;45.41;20.93;100178.48;1743406;109;25868;-77
2022/07/25 11:04:23;;;;;;;0.60;0.60;;;;;;;45.41;20.88;100175.73;1736139;113;25855;-80
2022/07/25 11:07:55;;;;;;;1.75;0.60;;;;;;;45.39;20.87;100172.84;1721276;114;25872;-81
2022/07/25 11:11:46;;;;;;;1.42;0.60;;;;;;;45.34;20.89;100167.09;1716923;113;26066;-80
2022/07/25 11:15:34;;;;;;;3.83;0.72;;;;;;;45.33;20.94;100168.12;1714214;111;25896;-77
2022/07/25 11:19:22;;;;;;;1.17;0.60;;;;;;;45.30;21.00;100159.75;1725861;112;25807;-78
2022/07/25 11:23:08;;;;;;;1.57;0.80;;;;;;;45.26;20.97;100158.41;1735199;112;26062;-77
2022/07/25 11:26:58;;;;;;;0.72;0.60;;;;;;;45.21;21.00;100153.51;1758134;107;25948;-76
2022/07/25 11:30:29;;;;;;;0.95;0.70;;;;;;;45.22;21.03;100146.95;1788941;105;25830;-79
2022/07/25 11:34:22;;;;;;;0.93;0.50;;;;;;;45.20;21.00;100141.33;1833596;106;25854;-77
2022/07/25 11:37:53;;;;;;;1.20;0.90;;;;;;;45.23;21.02;100145.92;1850609;105;26153;-81
2022/07/25 11:42:06;;;;;;;0.65;0.65;;;;;;;45.27;21.03;100139.50;1851043;105;25959;-76
2022/07/25 11:45:38;;;;;;;1.05;0.60;;;;;;;45.36;20.93;100130.04;1857487;105;25951;-80
2022/07/25 11:49:26;;;;;;;0.85;0.70;;;;;;;45.41;20.93;100129.47;1890973;100;25857;-82
2022/07/25 11:52:52;;;;;;;1.17;0.62;;;;;;;45.44;20.90;100117.53;1929775;100;25825;-81
2022/07/25 11:56:31;;;;;;;4.62;0.70;;;;;;;45.53;20.87;100116.04;1941034;99;25856;-78
2022/07/25 12:00:06;;;;;;;2.13;0.80;;;;;;;45.55;20.68;100116.70;1960826;99;25867;-77
2022/07/25 12:03:35;;;;;;;1.42;0.90;;;;;;;45.57;20.60;100109.95;1949128;100;25855;-78
2022/07/25 12:07:13;;;;;;;1.62;0.90;;;;;;;45.59;20.47;100111.13;1993104;95;25956;-78
2022/07/25 12:14:15;;;;;;;3.10;0.70;;;;;;;45.60;20.44;100106.80;2054033;95;25882;-79
2022/07/25 12:17:43;;;;;;;1.42;1.05;;;;;;;45.60;20.44;100101.80;2054203;96;25908;-79
2022/07/25 12:21:11;;;;;;;2.33;0.70;;;;;;;45.59;20.46;100098.73;2053824;96;25903;-77
2022/07/25 12:24:45;;;;;;;1.37;0.90;;;;;;;45.58;20.47;100090.15;2051491;96;26246;-77
2022/07/25 12:28:21;;;;;;;6.45;1.75;;;;;;;45.52;20.43;100080.78;2087661;92;25941;-77
2022/07/25 12:35:37;;;;;;;1.95;0.70;;;;;;;45.45;20.31;100080.69;2080686;92;25799;-80
2022/07/25 12:38:51;;;;;;;0.75;0.65;;;;;;;45.37;20.31;100073.95;2132615;91;25909;-77
2022/07/25 12:42:11;;;;;;;0.72;0.68;;;;;;;45.29;20.23;100069.10;2134603;92;25761;-80
2022/07/25 12:45:42;;;;;;;0.98;0.70;;;;;;;45.21;20.21;100068.19;2135290;92;25905;-82
2022/07/25 12:49:05;;;;;;;4.55;1.30;;;;;;;45.16;20.32;100062.94;2134727;92;25726;-79
2022/07/25 12:52:33;;;;;;;1.82;0.72;;;;;;;45.09;20.33;100062.03;2165489;89;25809;-79
2022/07/25 12:56:03;;;;;;;1.27;0.78;;;;;;;45.02;20.35;100055.05;2170188;91;25676;-80
2022/07/25 12:59:31;;;;;;;0.80;0.68;;;;;;;44.94;20.37;100047.79;2170495;89;25808;-78
2022/07/25 13:03:02;;;;;;;1.15;0.75;;;;;;;44.86;20.34;100046.55;2110303;92;25814;-80
2022/07/25 13:06:41;;;;;;;1.12;0.88;;;;;;;44.71;20.37;100045.73;2111562;92;25707;-76
2022/07/25 13:10:14;;;;;;;0.70;0.70;;;;;;;44.56;20.43;100036.14;2111276;92;25754;-76
2022/07/25 13:13:47;;;;;;;1.35;1.02;;;;;;;44.47;20.52;100030.41;2143749;92;25884;-80
2022/07/25 13:17:14;;;;;;;2.00;0.88;;;;;;;44.40;20.59;100022.61;2149917;89;25759;-81
2022/07/25 13:20:40;;;;;;;2.77;0.78;;;;;;;44.30;20.70;100014.14;2150218;90;25877;-80
2022/07/25 13:24:11;;;;;;;2.15;0.70;;;;;;;44.22;20.79;100010.64;2130275;91;25781;-81
2022/07/25 13:27:46;;;;;;;4.22;0.90;;;;;;;44.10;20.83;100006.66;2137298;89;25727;-80
2022/07/25 13:31:32;;;;;;;1.57;0.70;;;;;;;43.97;20.90;99999.94;2161271;90;25792;-80
2022/07/25 13:34:58;;;;;;;4.90;0.80;;;;;;;43.89;20.91;100001.91;2106069;93;25831;-79
2022/07/25 13:38:33;;;;;;;3.72;0.80;;;;;;;43.72;20.87;99995.76;2106546;93;25901;-81
2022/07/25 13:42:00;;;;;;;3.15;0.88;;;;;;;43.55;20.66;99995.93;2125096;90;25852;-79
2022/07/25 13:45:26;;;;;;;1.70;0.70;;;;;;;43.43;20.62;99985.03;2126050;91;26474;-79
2022/07/25 13:48:55;;;;;;;2.45;0.70;;;;;;;43.19;20.45;99982.01;2126400;93;26429;-77
2022/07/25 13:52:44;;;;;;;0.70;0.70;;;;;;;43.00;20.64;99978.37;2124832;93;25755;-78
2022/07/25 13:56:09;;;;;;;1.87;0.80;;;;;;;42.90;20.80;99969.90;2125674;91;25866;-79
2022/07/25 13:59:42;;;;;;;2.95;0.60;;;;;;;42.80;20.86;99960.22;2140343;91;25756;-77
2022/07/25 14:06:53;;;;;;;1.20;0.80;;;;;;;42.43;21.17;99954.44;2092995;92;25775;-77
2022/07/25 14:10:19;;;;;;;3.00;0.70;;;;;;;41.94;21.21;99919.06;2094264;92;25871;-77
2022/07/25 14:13:59;;;;;;;1.47;0.82;;;;;;;41.78;21.40;99944.25;2094017;92;25828;-79
2022/07/25 14:17:45;;;;;;;6.60;0.95;;;;;;;41.44;21.44;99950.33;2076268;94;26031;-77
2022/07/25 14:21:21;;;;;;;1.32;0.80;;;;;;;41.08;21.55;99940.29;2111691;92;25824;-76
2022/07/25 14:24:52;;;;;;;1.10;0.65;;;;;;;40.79;21.72;99933.93;2111780;92;25733;-79
2022/07/25 14:28:27;;;;;;;0.82;0.70;;;;;;;40.52;21.86;99933.19;2106697;92;25714;-80
2022/07/25 14:31:50;;;;;;;0.90;0.78;;;;;;;40.30;22.01;99937.91;2076325;94;25746;-80
2022/07/25 14:35:29;;;;;;;1.92;0.80;;;;;;;40.02;22.14;99941.38;2086906;91;26285;-76
2022/07/25 14:39:05;;;;;;;1.35;0.98;;;;;;;39.79;22.30;99922.86;2161892;91;25756;-76
2022/07/25 14:42:31;;;;;;;0.90;0.80;;;;;;;39.59;22.44;99920.00;2161350;89;25729;-79
2022/07/25 14:45:58;;;;;;;1.12;0.85;;;;;;;39.42;22.58;99911.75;2141976;89;25739;-76
2022/07/25 14:49:32;;;;;;;1.32;0.90;;;;;;;39.25;22.73;99907.67;2161858;91;25883;-79
2022/07/25 14:53:12;;;;;;;1.02;0.70;;;;;;;39.03;22.86;99894.92;2056129;94;25827;-76
2022/07/25 14:56:38;;;;;;;2.27;0.80;;;;;;;38.75;23.13;99892.81;2058356;95;25753;-78
2022/07/25 15:00:24;;;;;;;;;;;;;;;;;;;;;
2022/07/25 15:03:52;;;;;;;2.58;0.80;;;;;;;38.31;23.59;99878.22;2041678;94;25788;-76
2022/07/25 15:07:36;;;;;;;2.62;0.70;;;;;;;38.10;23.83;99878.52;2023401;96;25885;-79
2022/07/25 15:11:05;;;;;;;1.12;0.70;;;;;;;37.92;23.94;99872.55;2061534;95;25732;-78
2022/07/25 15:14:49;;;;;;;3.70;0.60;;;;;;;37.76;23.87;99865.52;2075235;95;26477;-76
2022/07/25 15:18:27;;;;;;;1.02;0.70;;;;;;;37.47;23.91;99861.59;2075067;95;25865;-78
2022/07/25 15:21:54;;;;;;;0.72;0.62;;;;;;;37.19;24.19;99858.77;2041868;96;25764;-76
2022/07/25 15:25:24;;;;;;;2.87;1.20;;;;;;;37.00;24.32;99850.19;2042160;96;26577;-80
2022/07/25 15:29:03;;;;;;;2.30;0.78;;;;;;;36.90;24.35;99844.40;2029589;96;26257;-79
2022/07/25 15:32:44;;;;;;;1.32;0.60;;;;;;;36.82;24.41;99841.03;2011555;98;26757;-79
2022/07/25 15:36:13;;;;;;;1.00;0.57;;;;;;;36.70;24.44;99843.06;2009493;98;26478;-79
2022/07/25 15:39:49;;;;;;;2.83;0.70;;;;;;;36.57;24.50;99837.93;2011657;98;25805;-76
2022/07/25 15:43:10;;;;;;;1.77;1.17;;;;;;;36.48;24.59;99831.11;2010765;96;25817;-81
2022/07/25 15:46:46;;;;;;;1.07;0.70;;;;;;;36.32;24.76;99823.06;2011076;98;25760;-78
2022/07/25 15:50:26;;;;;;;1.77;0.78;;;;;;;36.20;24.87;99828.77;2060109;95;25932;-80
2022/07/25 15:54:05;;;;;;;0.90;0.85;;;;;;;35.95;25.00;99826.42;2070005;93;25902;-80
2022/07/25 15:57:38;;;;;;;0.65;0.60;;;;;;;35.80;25.16;99826.45;2090921;93;26457;-77
2022/07/25 16:00:59;;;;;;;1.07;0.62;;;;;;;35.65;25.26;99827.36;2098009;93;25700;-78
2022/07/25 16:04:39;;;;;;;0.78;0.62;;;;;;;35.57;25.35;99820.89;2088864;94;25880;-79
2022/07/25 16:08:33;;;;;;;1.95;0.70;;;;;;;35.47;25.51;99814.05;2088291;94;25865;-77
2022/07/25 16:11:51;;;;;;;2.27;0.80;;;;;;;35.40;25.62;99814.23;2162517;89;25937;-76
2022/07/25 16:15:28;;;;;;;2.90;0.70;;;;;;;35.27;25.76;99809.08;2220298;87;25747;-76
2022/07/25 16:19:02;;;;;;;1.25;0.85;;;;;;;35.17;25.93;99808.17;2219957;89;25772;-79
2022/07/25 16:22:33;;;;;;;1.25;0.85;;;;;;;35.06;26.05;99809.10;2196842;89;25743;-77
2022/07/25 16:26:19;;;;;;;1.17;0.70;;;;;;;34.89;26.23;99804.27;2220219;89;25675;-79
2022/07/25 16:30:00;;;;;;;3.52;0.90;;;;;;;34.64;26.36;99807.77;2202933;86;25743;-78
2022/07/25 16:33:34;;;;;;;3.47;0.90;;;;;;;34.59;26.52;99796.95;2189056;89;25875;-80
2022/07/25 16:37:06;;;;;;;2.92;0.82;;;;;;;34.49;26.61;99795.03;2180978;88;25804;-80
2022/07/25 16:40:40;;;;;;;2.77;0.80;;;;;;;34.34;26.68;99792.27;2181786;90;25724;-80
2022/07/25 16:44:04;;;;;;;1.80;0.75;;;;;;;34.21;26.79;99788.38;2161176;88;25800;-80
2022/07/25 16:47:31;;;;;;;1.25;0.98;;;;;;;34.04;26.94;99781.69;2178870;88;25749;-80
2022/07/25 16:51:04;;;;;;;4.60;0.90;;;;;;;33.94;27.10;99780.70;2181579;89;25744;-76
2022/07/25 16:54:47;;;;;;;2.33;1.55;;;;;;;33.90;27.20;99779.25;2181492;90;25829;-81
2022/07/25 16:58:25;;;;;;;1.10;0.80;;;;;;;33.83;27.26;99781.61;2181750;90;26466;-77
2022/07/25 17:02:16;;;;;;;1.10;0.78;;;;;;;33.71;27.53;99779.91;2181636;88;25733;-78
2022/07/25 17:05:50;;;;;;;0.60;0.60;;;;;;;33.51;27.79;99770.73;2180498;88;25844;-80
2022/07/25 17:09:13;;;;;;;1.30;0.70;;;;;;;33.39;27.93;99763.61;2181148;88;25815;-77
2022/07/25 17:12:58;;;;;;;1.57;0.78;;;;;;;33.37;28.17;99761.52;2181607;88;25830;-80
2022/07/25 17:16:30;;;;;;;0.90;0.80;;;;;;;33.28;28.36;99759.59;2181242;88;25827;-77
2022/07/25 17:23:59;;;;;;;4.85;0.70;;;;;;;32.91;28.74;99751.70;2044282;94;25834;-81
2022/07/25 17:27:43;;;;;;;;;;;;;;;;;;;;;
2022/07/25 17:31:13;;;;;;;3.52;1.00;;;;;;;32.78;29.02;99741.50;2007535;96;25834;-79
2022/07/25 17:34:56;;;;;;;2.08;0.70;;;;;;;32.77;29.09;99735.71;1986604;98;25989;-80
2022/07/25 17:38:46;;;;;;;0.95;0.80;;;;;;;32.65;29.33;99732.16;1982152;97;25767;-77
2022/07/25 17:42:20;;;;;;;0.98;0.80;;;;;;;32.56;29.68;99727.48;1982275;97;25821;-80
2022/07/25 17:45:54;;;;;;;1.47;0.90;;;;;;;32.28;29.98;99727.39;1923397;99;25702;-80
2022/07/25 17:49:21;;;;;;;2.98;1.00;;;;;;;32.18;30.13;99724.05;1956391;99;26134;-77
2022/07/25 17:52:57;;;;;;;1.15;1.05;;;;;;;32.18;30.21;99720.00;1952998;98;25863;-80
2022/07/25 17:56:35;;;;;;;0.95;0.88;;;;;;;32.10;30.35;99716.19;1988387;98;25748;-76
2022/07/25 18:00:03;;;;;;;1.40;0.88;;;;;;;32.05;30.43;99721.91;1989201;97;25769;-79